createdAt,value
2022-08-28T00:03:15.590Z,24.50
2022-08-28T00:06:38.381Z,24.51
2022-08-28T00:09:59.354Z,24.53
2022-08-28T00:13:26.387Z,24.58
2022-08-28T00:16:48.233Z,24.62
2022-08-28T00:20:09.350Z,24.66
2022-08-28T00:23:38.807Z,24.65
2022-08-28T00:27:21.371Z,24.61
2022-08-28T00:30:42.387Z,24.55
2022-08-28T00:34:03.373Z,24.53
2022-08-28T00:37:24.735Z,24.54
2022-08-28T00:40:45.416Z,24.59
2022-08-28T00:44:20.354Z,24.59
2022-08-28T00:47:41.366Z,24.57
2022-08-28T00:51:38.390Z,24.61
2022-08-28T00:55:07.412Z,24.64
2022-08-28T00:58:28.363Z,24.71
2022-08-28T01:01:50.396Z,24.73
2022-08-28T01:05:11.349Z,24.77
2022-08-28T01:08:32.389Z,24.77
2022-08-28T01:11:56.399Z,24.80
2022-08-28T01:15:24.376Z,24.91
2022-08-28T01:18:47.364Z,25.01
2022-08-28T01:22:57.365Z,25.06
2022-08-28T01:26:18.379Z,25.12
2022-08-28T01:29:39.396Z,25.13
2022-08-28T01:33:04.416Z,25.14
2022-08-28T01:36:26.375Z,25.09
2022-08-28T01:39:47.414Z,24.91
2022-08-28T01:43:08.392Z,24.69
2022-08-28T01:46:29.441Z,24.54
2022-08-28T01:49:50.386Z,24.38
2022-08-28T01:53:12.488Z,24.30
2022-08-28T01:56:33.387Z,24.18
2022-08-28T01:59:54.390Z,24.13
2022-08-28T02:03:16.378Z,24.18
2022-08-28T02:06:37.401Z,24.22
2022-08-28T02:09:58.388Z,24.23
2022-08-28T02:13:20.388Z,24.22
2022-08-28T02:16:41.395Z,24.19
2022-08-28T02:20:02.393Z,24.20
2022-08-28T02:23:24.369Z,24.21
2022-08-28T02:26:45.410Z,24.16
2022-08-28T02:30:06.383Z,24.17
2022-08-28T02:33:27.411Z,24.17
2022-08-28T02:36:48.403Z,24.05
2022-08-28T02:40:10.448Z,23.90
2022-08-28T02:46:52.389Z,23.89
2022-08-28T02:53:35.417Z,23.95
2022-08-28T02:56:56.426Z,24.11
2022-08-28T03:00:23.432Z,24.12
2022-08-28T03:03:46.431Z,24.23
2022-08-28T03:07:07.427Z,24.36
2022-08-28T03:10:28.419Z,24.34
2022-08-28T03:13:49.424Z,24.37
2022-08-28T03:17:10.428Z,24.44
2022-08-28T03:20:31.410Z,24.35
2022-08-28T03:23:53.430Z,24.30
2022-08-28T03:27:14.416Z,24.25
2022-08-28T03:30:36.448Z,24.17
2022-08-28T03:33:57.425Z,24.11
2022-08-28T03:37:18.439Z,24.07
2022-08-28T03:40:39.462Z,24.04
2022-08-28T03:44:00.450Z,24.09
2022-08-28T03:47:21.572Z,24.15
2022-08-28T03:50:42.481Z,24.18
2022-08-28T03:54:04.429Z,24.26
2022-08-28T03:57:25.453Z,24.43
2022-08-28T04:00:46.439Z,24.54
2022-08-28T04:04:07.457Z,24.70
2022-08-28T04:07:29.647Z,24.78
2022-08-28T04:10:51.434Z,24.82
2022-08-28T04:14:12.432Z,24.85
2022-08-28T04:17:33.438Z,24.82
2022-08-28T04:20:54.418Z,24.79
2022-08-28T04:24:15.452Z,24.84
2022-08-28T04:27:36.430Z,24.91
2022-08-28T04:30:57.472Z,24.99
2022-08-28T04:34:20.461Z,25.03
2022-08-28T04:37:44.440Z,25.14
2022-08-28T04:41:05.462Z,25.22
2022-08-28T04:44:26.448Z,25.25
2022-08-28T04:47:52.479Z,25.26
2022-08-28T04:51:13.453Z,25.27
2022-08-28T04:54:34.489Z,25.32
2022-08-28T04:57:55.458Z,25.37
2022-08-28T05:01:22.580Z,25.44
2022-08-28T05:04:43.463Z,25.57
2022-08-28T05:08:04.462Z,25.68
2022-08-28T05:11:34.078Z,25.74
2022-08-28T05:14:55.459Z,25.72
2022-08-28T05:18:16.442Z,25.81
2022-08-28T05:21:37.470Z,25.90
2022-08-28T05:24:58.459Z,26.02
2022-08-28T05:28:20.498Z,26.21
2022-08-28T05:31:46.228Z,26.41
2022-08-28T05:35:07.473Z,26.46
2022-08-28T05:38:30.468Z,26.55
2022-08-28T05:41:54.491Z,26.54
2022-08-28T05:45:15.462Z,26.52
2022-08-28T05:48:39.460Z,26.58
2022-08-28T05:52:00.456Z,26.68
2022-08-28T05:55:16.513Z,26.79
2022-08-28T05:58:37.451Z,26.86
2022-08-28T06:01:54.532Z,26.87
2022-08-28T06:05:15.456Z,26.86
2022-08-28T06:08:36.484Z,26.72
2022-08-28T06:11:58.459Z,26.65
2022-08-28T06:15:19.500Z,26.57
2022-08-28T06:18:41.528Z,26.57
2022-08-28T06:22:07.123Z,26.61
2022-08-28T06:25:28.532Z,26.62
2022-08-28T06:28:49.484Z,26.65
2022-08-28T06:32:13.582Z,26.70
2022-08-28T06:35:34.509Z,26.66
2022-08-28T06:38:55.555Z,26.64
2022-08-28T06:42:16.522Z,26.65
2022-08-28T06:45:37.610Z,26.68
2022-08-28T06:48:58.477Z,26.66
2022-08-28T06:52:19.492Z,26.54
2022-08-28T06:55:40.485Z,26.46
2022-08-28T06:59:02.495Z,26.33
2022-08-28T07:02:23.555Z,26.47
2022-08-28T07:05:49.492Z,26.59
2022-08-28T07:09:10.527Z,26.55
2022-08-28T07:12:31.518Z,26.49
2022-08-28T07:15:52.663Z,26.56
2022-08-28T07:19:14.513Z,26.70
2022-08-28T07:22:35.505Z,26.83
2022-08-28T07:25:56.584Z,26.92
2022-08-28T07:29:18.503Z,27.07
2022-08-28T07:32:40.503Z,27.20
2022-08-28T07:36:01.486Z,27.30
2022-08-28T07:39:24.498Z,27.39
2022-08-28T07:42:56.528Z,27.46
2022-08-28T07:46:20.562Z,27.54
2022-08-28T07:49:41.499Z,27.72
2022-08-28T07:53:02.533Z,28.05
2022-08-28T07:56:23.529Z,28.31
2022-08-28T07:59:44.522Z,28.38
2022-08-28T08:03:05.597Z,28.20
2022-08-28T08:06:26.516Z,28.00
2022-08-28T08:09:54.531Z,28.14
2022-08-28T08:13:18.505Z,28.36
2022-08-28T08:16:40.614Z,28.59
2022-08-28T08:20:01.612Z,28.89
2022-08-28T08:23:22.591Z,29.13
2022-08-28T08:26:43.559Z,29.37
2022-08-28T08:30:10.545Z,29.73
2022-08-28T08:33:31.515Z,30.08
2022-08-28T08:36:52.541Z,30.32
2022-08-28T08:40:13.589Z,30.52
2022-08-28T08:43:35.532Z,30.64
2022-08-28T08:47:13.227Z,31.06
2022-08-28T08:50:48.527Z,31.60
2022-08-28T08:54:19.522Z,31.74
2022-08-28T08:57:41.540Z,31.91
2022-08-28T09:01:36.584Z,31.87
2022-08-28T09:05:07.617Z,31.59
2022-08-28T09:08:39.557Z,31.36
2022-08-28T09:12:10.526Z,31.18
2022-08-28T09:15:50.491Z,31.14
2022-08-28T09:19:12.542Z,31.17
2022-08-28T09:22:33.552Z,31.07
2022-08-28T09:26:10.528Z,31.14
2022-08-28T09:29:39.556Z,31.20
2022-08-28T09:33:11.530Z,31.19
2022-08-28T09:36:47.550Z,31.22
2022-08-28T09:40:58.596Z,31.44
2022-08-28T09:44:19.541Z,31.60
2022-08-28T09:47:55.557Z,31.71
2022-08-28T09:51:45.557Z,31.89
2022-08-28T09:55:06.546Z,32.03
2022-08-28T09:58:27.546Z,32.12
2022-08-28T10:01:55.593Z,32.14
2022-08-28T10:05:26.784Z,32.33
2022-08-28T10:08:48.573Z,32.53
2022-08-28T10:12:23.531Z,32.82
2022-08-28T10:15:47.650Z,33.07
2022-08-28T10:19:33.576Z,33.32
2022-08-28T10:23:27.550Z,33.56
2022-08-28T10:26:55.563Z,33.51
2022-08-28T10:30:29.550Z,33.56
2022-08-28T10:33:50.563Z,33.92
2022-08-28T10:37:28.566Z,34.17
2022-08-28T10:41:04.557Z,34.34
2022-08-28T10:44:32.551Z,34.19
2022-08-28T10:47:58.577Z,34.00
2022-08-28T10:51:35.268Z,34.03
2022-08-28T10:55:19.568Z,33.96
2022-08-28T10:58:41.583Z,33.79
2022-08-28T11:02:03.580Z,33.57
2022-08-28T11:05:24.593Z,33.58
2022-08-28T11:08:49.559Z,33.86
2022-08-28T11:12:19.577Z,34.15
2022-08-28T11:15:43.570Z,34.65
2022-08-28T11:19:20.591Z,35.04
2022-08-28T11:22:55.564Z,35.09
2022-08-28T11:26:22.583Z,34.95
2022-08-28T11:30:11.571Z,34.84
2022-08-28T11:34:07.588Z,34.82
2022-08-28T11:37:56.591Z,34.96
2022-08-28T11:42:09.591Z,34.79
2022-08-28T11:45:56.648Z,34.41
2022-08-28T11:49:35.590Z,34.13
2022-08-28T11:53:15.615Z,33.80
2022-08-28T11:57:02.622Z,33.52
2022-08-28T12:00:34.596Z,33.40
2022-08-28T12:04:08.446Z,33.36
2022-08-28T12:07:29.631Z,33.33
2022-08-28T12:10:53.614Z,33.34
2022-08-28T12:14:14.595Z,33.65
2022-08-28T12:17:36.599Z,34.17
2022-08-28T12:21:07.299Z,34.78
2022-08-28T12:24:37.615Z,35.30
2022-08-28T12:27:59.596Z,35.72
2022-08-28T12:31:20.723Z,36.02
2022-08-28T12:34:59.582Z,36.12
2022-08-28T12:38:21.612Z,36.04
2022-08-28T12:41:36.598Z,35.77
2022-08-28T12:44:58.599Z,35.67
2022-08-28T12:48:30.593Z,36.07
2022-08-28T12:51:51.616Z,36.30
2022-08-28T12:55:12.601Z,35.97
2022-08-28T12:58:47.614Z,35.19
2022-08-28T13:02:25.693Z,34.73
2022-08-28T13:05:51.617Z,34.41
2022-08-28T13:09:30.606Z,34.36
2022-08-28T13:12:56.096Z,34.72
2022-08-28T13:16:23.623Z,35.28
2022-08-28T13:19:45.598Z,35.49
2022-08-28T13:23:06.667Z,35.87
2022-08-28T13:26:39.602Z,36.30
2022-08-28T13:30:27.675Z,36.58
2022-08-28T13:33:48.638Z,36.37
2022-08-28T13:37:55.620Z,36.14
2022-08-28T13:41:18.660Z,36.82
2022-08-28T13:44:46.623Z,37.63
2022-08-28T13:48:07.624Z,38.28
2022-08-28T13:51:28.613Z,38.24
2022-08-28T13:54:50.676Z,38.01
2022-08-28T13:58:11.622Z,37.78
2022-08-28T14:01:55.736Z,37.45
2022-08-28T14:05:16.627Z,36.97
2022-08-28T14:08:37.695Z,36.49
2022-08-28T14:11:59.643Z,35.98
2022-08-28T14:15:20.657Z,35.45
2022-08-28T14:18:41.621Z,35.10
2022-08-28T14:22:02.639Z,34.95
2022-08-28T14:25:23.635Z,34.97
2022-08-28T14:28:44.661Z,34.92
2022-08-28T14:32:06.703Z,34.94
2022-08-28T14:35:27.619Z,34.87
2022-08-28T14:38:48.620Z,34.66
2022-08-28T14:42:12.937Z,34.34
2022-08-28T14:45:33.686Z,33.94
2022-08-28T14:48:54.647Z,33.60
2022-08-28T14:52:15.625Z,33.28
2022-08-28T14:55:36.622Z,33.12
2022-08-28T14:58:57.639Z,32.99
2022-08-28T15:02:19.636Z,32.86
2022-08-28T15:05:40.621Z,32.67
2022-08-28T15:09:01.637Z,32.49
2022-08-28T15:12:22.617Z,32.33
2022-08-28T15:15:43.648Z,32.19
2022-08-28T15:19:05.642Z,32.06
2022-08-28T15:22:27.444Z,31.95
2022-08-28T15:25:48.666Z,31.86
2022-08-28T15:29:10.645Z,31.74
2022-08-28T15:32:31.651Z,31.57
2022-08-28T15:35:52.642Z,31.33
2022-08-28T15:39:31.670Z,31.00
2022-08-28T15:42:52.654Z,30.81
2022-08-28T15:46:13.707Z,30.79
2022-08-28T15:49:36.187Z,30.82
2022-08-28T15:53:06.614Z,30.80
2022-08-28T15:56:29.642Z,30.79
2022-08-28T15:59:50.962Z,30.73
2022-08-28T16:03:12.903Z,30.64
2022-08-28T16:06:35.666Z,30.51
2022-08-28T16:09:56.656Z,30.38
2022-08-28T16:13:12.822Z,30.33
2022-08-28T16:16:33.790Z,30.33
2022-08-28T16:19:55.679Z,30.12
2022-08-28T16:23:17.655Z,29.87
2022-08-28T16:26:38.684Z,29.74
2022-08-28T16:29:59.684Z,29.63
2022-08-28T16:33:26.678Z,29.50
2022-08-28T16:36:47.685Z,29.35
2022-08-28T16:40:08.686Z,29.16
2022-08-28T16:43:22.671Z,29.00
2022-08-28T16:46:44.696Z,28.88
2022-08-28T16:50:12.685Z,28.76
2022-08-28T16:53:33.673Z,28.67
2022-08-28T16:56:54.685Z,28.65
2022-08-28T17:00:17.680Z,28.61
2022-08-28T17:03:38.721Z,28.64
2022-08-28T17:06:59.684Z,28.66
2022-08-28T17:10:22.679Z,28.61
2022-08-28T17:13:43.675Z,28.59
2022-08-28T17:17:05.703Z,28.51
2022-08-28T17:20:45.680Z,28.43
2022-08-28T17:24:06.709Z,28.41
2022-08-28T17:27:27.701Z,28.42
2022-08-28T17:30:48.692Z,28.41
2022-08-28T17:34:09.741Z,28.36
2022-08-28T17:37:31.753Z,28.29
2022-08-28T17:40:52.697Z,28.29
2022-08-28T17:44:14.715Z,28.29
2022-08-28T17:47:35.656Z,28.27
2022-08-28T17:50:57.737Z,28.30
2022-08-28T17:54:18.695Z,28.35
2022-08-28T17:57:40.834Z,28.40
2022-08-28T18:01:01.758Z,28.33
2022-08-28T18:04:24.495Z,28.31
2022-08-28T18:07:45.685Z,28.32
2022-08-28T18:11:06.711Z,28.22
2022-08-28T18:14:27.699Z,28.14
2022-08-28T18:17:54.704Z,28.03
2022-08-28T18:21:15.718Z,27.97
2022-08-28T18:24:36.703Z,27.91
2022-08-28T18:27:57.726Z,27.85
2022-08-28T18:31:19.781Z,27.78
2022-08-28T18:34:40.741Z,27.72
2022-08-28T18:38:03.704Z,27.76
2022-08-28T18:41:30.672Z,27.74
2022-08-28T18:45:04.760Z,27.66
2022-08-28T18:48:25.768Z,27.56
2022-08-28T18:51:46.734Z,27.50
2022-08-28T18:55:07.726Z,27.42
2022-08-28T18:58:28.807Z,27.37
2022-08-28T19:01:49.843Z,27.30
2022-08-28T19:05:10.827Z,27.28
2022-08-28T19:08:31.749Z,27.18
2022-08-28T19:11:52.728Z,27.08
2022-08-28T19:15:13.764Z,27.00
2022-08-28T19:18:35.713Z,26.92
2022-08-28T19:21:56.747Z,26.87
2022-08-28T19:25:27.907Z,26.78
2022-08-28T19:28:51.746Z,26.76
2022-08-28T19:32:12.741Z,26.74
2022-08-28T19:35:33.758Z,26.68
2022-08-28T19:38:54.719Z,26.67
2022-08-28T19:42:15.730Z,26.59
2022-08-28T19:45:36.721Z,26.60
2022-08-28T19:48:57.767Z,26.54
2022-08-28T19:52:18.717Z,26.54
2022-08-28T19:55:40.755Z,26.56
2022-08-28T19:59:01.777Z,26.51
2022-08-28T20:02:22.854Z,26.50
2022-08-28T20:05:43.774Z,26.46
2022-08-28T20:09:06.593Z,26.37
2022-08-28T20:12:31.782Z,26.30
2022-08-28T20:15:59.798Z,26.30
2022-08-28T20:19:22.755Z,26.22
2022-08-28T20:22:43.743Z,26.18
2022-08-28T20:26:05.752Z,26.15
2022-08-28T20:29:26.746Z,26.12
2022-08-28T20:32:47.749Z,26.08
2022-08-28T20:36:16.320Z,26.06
2022-08-28T20:39:43.780Z,26.01
2022-08-28T20:43:04.737Z,25.97
2022-08-28T20:46:27.784Z,25.97
2022-08-28T20:49:48.738Z,26.03
2022-08-28T20:53:10.754Z,26.17
2022-08-28T20:56:31.735Z,26.22
2022-08-28T20:59:55.745Z,26.16
2022-08-28T21:03:18.795Z,26.08
2022-08-28T21:06:46.758Z,26.08
2022-08-28T21:10:08.240Z,26.09
2022-08-28T21:13:28.768Z,26.03
2022-08-28T21:16:51.811Z,25.95
2022-08-28T21:20:15.763Z,25.89
2022-08-28T21:23:36.784Z,25.85
2022-08-28T21:27:00.804Z,25.79
2022-08-28T21:30:23.784Z,25.71
2022-08-28T21:33:50.764Z,25.60
2022-08-28T21:37:12.779Z,25.34
2022-08-28T21:40:33.819Z,25.00
2022-08-28T21:43:57.783Z,24.77
2022-08-28T21:47:18.885Z,24.61
2022-08-28T21:50:39.776Z,24.52
2022-08-28T21:54:00.802Z,24.50
2022-08-28T21:57:21.798Z,24.40
2022-08-28T22:00:42.774Z,24.42
2022-08-28T22:04:03.807Z,24.51
2022-08-28T22:07:33.789Z,24.57
2022-08-28T22:10:56.808Z,24.52
2022-08-28T22:14:17.815Z,24.49
2022-08-28T22:17:38.806Z,24.49
2022-08-28T22:21:18.794Z,24.35
2022-08-28T22:24:39.807Z,24.23
2022-08-28T22:28:00.805Z,24.10
2022-08-28T22:31:21.809Z,24.02
2022-08-28T22:34:35.844Z,23.98
2022-08-28T22:37:56.807Z,23.96
2022-08-28T22:44:38.820Z,23.76
2022-08-28T22:48:00.810Z,23.73
2022-08-28T22:51:24.870Z,23.75
2022-08-28T22:54:46.826Z,23.64
2022-08-28T22:58:07.884Z,23.61
2022-08-28T23:01:31.843Z,23.54
2022-08-28T23:04:52.824Z,23.54
2022-08-28T23:08:13.916Z,23.55
2022-08-28T23:11:34.870Z,23.57
2022-08-28T23:14:55.863Z,23.59
2022-08-28T23:18:16.829Z,23.72
2022-08-28T23:21:43.955Z,23.75
2022-08-28T23:25:04.830Z,23.75
2022-08-28T23:28:26.861Z,23.74
2022-08-28T23:31:47.946Z,23.73
2022-08-28T23:35:08.835Z,23.75
2022-08-28T23:38:29.840Z,23.80
2022-08-28T23:41:50.843Z,23.81
2022-08-28T23:45:11.831Z,23.88
2022-08-28T23:51:54.821Z,23.87
2022-08-28T23:55:15.861Z,23.93
2022-08-28T23:58:36.799Z,23.99
